Time;durP1;ratioP1;P1;durP2;ratioP2;P2;SDS_P1;SDS_P2;PMS_P1;PMS_P2;Temp;Humidity;BMP_temperature;BMP_pressure;BME280_temperature;BME280_humidity;BME280_pressure;Samples;Min_cycle;Max_cycle;Signal;HPM_P1;HPM_P2
2022/08/12 00:44:48;;;;;;;5.37;2.30;;;17.60;68.20;;;;;;5048439;28;20486;-50
2022/08/12 00:47:18;;;;;;;2.53;2.27;;;17.60;64.70;;;;;;5048563;28;20466;-50
2022/08/12 00:49:45;;;;;;;2.37;2.10;;;17.60;66.80;;;;;;5049221;28;20899;-50
2022/08/12 00:52:13;;;;;;;2.50;2.27;;;17.50;65.20;;;;;;5049420;28;20541;-50
2022/08/12 00:54:43;;;;;;;3.90;2.90;;;17.50;64.60;;;;;;5047436;28;20481;-50
2022/08/12 00:57:13;;;;;;;5.03;2.23;;;17.50;65.30;;;;;;5043431;28;20454;-49
2022/08/12 00:59:46;;;;;;;2.50;2.37;;;17.50;64.40;;;;;;5045958;28;20454;-51
2022/08/12 01:02:23;;;;;;;2.33;2.20;;;17.40;62.60;;;;;;5048259;28;20481;-50
2022/08/12 01:13:15;;;;;;;8.67;2.80;;;17.30;60.20;;;;;;5041647;28;21013;-49
2022/08/12 01:15:43;;;;;;;2.40;2.30;;;17.20;58.30;;;;;;5041307;28;20474;-49
2022/08/12 01:18:12;;;;;;;3.03;2.80;;;17.20;47.40;;;;;;5049474;28;20532;-51
2022/08/12 01:20:47;;;;;;;2.43;2.20;;;17.10;53.60;;;;;;5049335;28;20457;-49
2022/08/12 01:23:45;;;;;;;3.23;1.90;;;17.00;51.10;;;;;;5046705;28;20485;-51
2022/08/12 01:26:17;;;;;;;7.33;3.10;;;17.00;48.50;;;;;;5046112;28;20453;-50
2022/08/12 01:28:46;;;;;;;2.73;2.63;;;16.90;48.70;;;;;;5044232;28;20527;-49
2022/08/12 01:31:15;;;;;;;3.40;2.20;;;16.90;47.10;;;;;;5047015;28;20454;-51
2022/08/12 01:33:50;;;;;;;5.20;2.77;;;16.80;45.50;;;;;;5044057;28;20854;-50
2022/08/12 01:36:19;;;;;;;3.37;2.33;;;16.70;40.40;;;;;;5046296;28;20487;-50
2022/08/12 01:38:47;;;;;;;2.90;2.70;;;16.70;40.70;;;;;;5055607;28;20485;-51
2022/08/12 01:41:18;;;;;;;6.43;2.83;;;16.70;40.00;;;;;;5047045;28;20454;-50
2022/08/12 01:43:45;;;;;;;8.30;2.70;;;16.60;33.70;;;;;;5049000;28;20502;-50
2022/08/12 01:46:25;;;;;;;3.07;2.87;;;16.70;39.90;;;;;;5048884;28;20535;-50
2022/08/12 01:49:03;;;;;;;2.83;2.47;;;16.70;39.80;;;;;;5048649;28;20453;-50
2022/08/12 01:51:41;;;;;;;2.47;2.27;;;16.70;40.70;;;;;;5047302;28;20455;-50
2022/08/12 01:54:11;;;;;;;5.53;2.50;;;16.70;34.50;;;;;;5045946;28;20581;-51
2022/08/12 01:56:48;;;;;;;6.23;2.40;;;16.70;38.90;;;;;;5048137;28;20546;-50
2022/08/12 02:02:07;;;;;;;2.60;2.40;;;16.70;40.70;;;;;;5047924;28;20473;-50
2022/08/12 02:13:33;;;;;;;2.67;2.43;;;16.50;41.90;;;;;;5040762;28;20614;-51
2022/08/12 02:16:07;;;;;;;2.23;2.13;;;16.50;40.70;;;;;;5046528;28;20489;-50
2022/08/12 02:18:57;;;;;;;2.70;2.50;;;16.40;40.70;;;;;;5047926;28;20524;-50
2022/08/12 02:21:38;;;;;;;2.13;2.03;;;16.40;36.90;;;;;;5042132;28;20457;-49
2022/08/12 02:24:07;;;;;;;3.00;2.80;;;16.30;37.00;;;;;;5038008;28;20505;-50
2022/08/12 02:26:39;;;;;;;4.50;2.10;;;16.30;36.70;;;;;;5046086;28;20626;-50
2022/08/12 02:29:07;;;;;;;3.70;2.43;;;16.20;34.20;;;;;;5046009;28;20493;-49
2022/08/12 02:31:36;;;;;;;11.23;2.40;;;16.10;36.20;;;;;;5046164;28;20878;-49
2022/08/12 02:34:04;;;;;;;8.60;3.00;;;16.20;33.80;;;;;;5048376;28;20461;-49
2022/08/12 02:36:31;;;;;;;8.20;2.70;;;16.10;34.40;;;;;;5049955;28;20454;-50
2022/08/12 02:38:59;;;;;;;3.67;2.90;;;16.00;34.10;;;;;;5049117;28;20574;-50
2022/08/12 02:41:29;;;;;;;2.50;2.30;;;15.90;32.10;;;;;;5047055;28;20458;-50
2022/08/12 02:44:02;;;;;;;2.47;2.37;;;15.90;26.00;;;;;;5049057;28;20474;-49
2022/08/12 02:46:33;;;;;;;11.03;2.93;;;15.80;74.00;;;;;;5051300;28;20465;-50
2022/08/12 02:49:05;;;;;;;5.60;2.27;;;15.80;22.70;;;;;;5051286;28;20453;-51
2022/08/12 02:51:33;;;;;;;2.80;2.60;;;15.90;25.10;;;;;;5054341;28;20828;-49
2022/08/12 02:54:03;;;;;;;2.67;2.47;;;15.90;25.30;;;;;;5050779;28;20504;-50
2022/08/12 02:56:31;;;;;;;4.00;2.40;;;15.80;25.80;;;;;;5052044;28;20454;-50
2022/08/12 02:58:59;;;;;;;2.90;2.40;;;15.80;25.50;;;;;;5050011;28;22212;-51
2022/08/12 03:01:32;;;;;;;2.70;2.50;;;15.80;23.00;;;;;;5051034;28;20940;-49
2022/08/12 03:04:00;;;;;;;8.47;2.50;;;15.80;21.90;;;;;;5049790;28;20474;-50
2022/08/12 03:06:33;;;;;;;3.37;2.47;;;15.80;20.80;;;;;;5045802;28;20973;-50
2022/08/12 03:09:03;;;;;;;6.67;2.50;;;15.80;25.30;;;;;;5050501;28;20528;-50
2022/08/12 03:11:37;;;;;;;4.50;2.77;;;15.70;28.10;;;;;;5052434;28;20450;-50
2022/08/12 03:14:06;;;;;;;2.63;2.43;;;15.80;25.80;;;;;;5051863;28;20475;-49
2022/08/12 03:16:34;;;;;;;5.37;2.60;;;15.70;24.70;;;;;;5053658;28;20951;-50
2022/08/12 03:19:02;;;;;;;5.50;2.70;;;15.70;76.40;;;;;;5049677;28;20484;-51
2022/08/12 03:21:31;;;;;;;3.57;3.00;;;15.60;20.10;;;;;;5057737;28;20468;-50
2022/08/12 03:24:00;;;;;;;4.47;2.63;;;15.60;21.50;;;;;;5047588;28;20489;-50
2022/08/12 03:26:29;;;;;;;6.47;3.50;;;15.60;22.70;;;;;;5056393;28;20950;-49
2022/08/12 03:28:57;;;;;;;2.80;2.60;;;15.50;80.90;;;;;;5052066;28;20489;-50
2022/08/12 03:31:28;;;;;;;2.70;2.47;;;15.50;76.90;;;;;;5046872;28;20484;-50
2022/08/12 03:33:59;;;;;;;4.27;2.90;;;15.50;91.20;;;;;;5050244;28;20461;-50
2022/08/12 03:36:28;;;;;;;2.53;2.33;;;15.50;93.50;;;;;;5054194;28;20479;-50
2022/08/12 03:39:18;;;;;;;4.53;2.80;;;15.50;99.90;;;;;;5048480;28;20457;-50
2022/08/12 03:41:49;;;;;;;4.73;2.43;;;15.40;99.90;;;;;;5048479;28;20545;-49
2022/08/12 04:01:00;;;;;;;2.63;2.40;;;15.10;99.90;;;;;;5025765;28;20879;-51
2022/08/12 04:06:13;;;;;;;3.90;2.93;;;15.20;99.90;;;;;;5038166;28;20468;-52
2022/08/12 04:08:40;;;;;;;4.10;3.10;;;15.20;99.90;;;;;;5050981;28;20488;-52
2022/08/12 04:13:51;;;;;;;5.30;3.10;;;15.10;99.90;;;;;;5042763;28;20469;-52
2022/08/12 04:16:18;;;;;;;3.00;2.80;;;15.10;99.90;;;;;;5050079;28;20539;-52
2022/08/12 04:18:45;;;;;;;3.43;2.90;;;15.10;99.90;;;;;;5050588;28;20449;-51
2022/08/12 04:21:13;;;;;;;2.80;2.70;;;15.10;99.90;;;;;;5043547;28;20458;-52
2022/08/12 04:23:41;;;;;;;3.17;2.47;;;15.10;99.90;;;;;;5052349;28;20492;-52
2022/08/12 04:26:09;;;;;;;2.70;2.43;;;15.10;99.90;;;;;;5046940;28;20484;-52
2022/08/12 04:28:36;;;;;;;5.70;3.40;;;15.20;99.90;;;;;;5049289;28;20480;-52
2022/08/12 04:31:03;;;;;;;2.73;2.53;;;15.10;99.90;;;;;;5053747;28;20815;-52
2022/08/12 04:33:31;;;;;;;3.37;3.07;;;15.20;99.90;;;;;;5045497;28;20454;-52
2022/08/12 04:35:57;;;;;;;5.50;2.80;;;15.20;99.90;;;;;;5054811;28;20580;-52
2022/08/12 04:38:27;;;;;;;3.17;2.97;;;15.20;99.90;;;;;;5047876;28;20458;-51
2022/08/12 04:40:54;;;;;;;3.43;3.00;;;15.20;99.90;;;;;;5049090;28;21020;-51
2022/08/12 04:43:21;;;;;;;2.90;2.80;;;15.30;99.90;;;;;;5044529;28;20872;-52
2022/08/12 04:45:48;;;;;;;6.00;3.57;;;15.30;99.90;;;;;;5048523;28;20486;-51
2022/08/12 04:48:15;;;;;;;2.90;2.80;;;15.40;99.90;;;;;;5036640;28;20463;-52
2022/08/12 04:50:43;;;;;;;5.43;2.90;;;15.40;99.90;;;;;;5052360;28;20523;-52
2022/08/12 04:53:12;;;;;;;2.77;2.57;;;15.50;99.90;;;;;;5050226;28;20507;-52
2022/08/12 04:55:41;;;;;;;4.07;3.20;;;15.50;99.90;;;;;;5051998;28;20562;-52
2022/08/12 04:58:09;;;;;;;2.60;2.50;;;15.60;99.90;;;;;;5045175;28;20465;-52
2022/08/12 05:00:36;;;;;;;3.23;2.93;;;15.60;83.30;;;;;;5043794;28;20465;-51
2022/08/12 05:03:04;;;;;;;3.43;3.10;;;15.70;84.40;;;;;;5054031;28;20482;-51
2022/08/12 05:05:32;;;;;;;3.17;2.90;;;15.80;97.10;;;;;;5041275;28;20515;-51
2022/08/12 05:07:58;;;;;;;5.33;3.03;;;15.80;74.00;;;;;;5046433;28;20457;-52
2022/08/12 05:10:25;;;;;;;3.73;2.27;;;16.00;81.70;;;;;;5054646;28;20483;-51
2022/08/12 05:12:57;;;;;;;6.37;3.20;;;16.00;23.10;;;;;;5052698;28;20457;-52
2022/08/12 05:15:24;;;;;;;10.70;2.87;;;16.10;29.60;;;;;;5049637;28;20883;-52
2022/08/12 05:17:51;;;;;;;8.43;2.67;;;16.20;30.50;;;;;;5052351;28;20462;-52
2022/08/12 05:20:19;;;;;;;3.20;2.40;;;16.30;32.40;;;;;;5050747;28;20457;-52
2022/08/12 05:22:46;;;;;;;4.60;2.70;;;16.40;35.80;;;;;;5043523;28;20976;-51
2022/08/12 05:25:14;;;;;;;3.10;2.80;;;16.50;35.80;;;;;;5063660;28;20495;-52
2022/08/12 05:27:41;;;;;;;3.50;3.30;;;16.60;36.30;;;;;;5054636;28;20504;-51
2022/08/12 05:30:11;;;;;;;3.20;3.00;;;16.70;34.80;;;;;;5049996;28;20452;-52
2022/08/12 05:32:38;;;;;;;4.73;2.67;;;16.80;36.90;;;;;;5056870;28;20564;-51
2022/08/12 05:35:06;;;;;;;6.60;3.10;;;16.90;39.70;;;;;;5044952;28;20450;-51
2022/08/12 05:37:34;;;;;;;2.63;2.53;;;17.00;40.60;;;;;;5048031;28;20473;-52
2022/08/12 05:40:01;;;;;;;3.57;3.27;;;17.10;39.60;;;;;;5051919;28;20462;-52
2022/08/12 05:42:28;;;;;;;5.90;3.00;;;17.20;43.50;;;;;;5038063;28;20545;-52
2022/08/12 05:44:54;;;;;;;3.93;2.60;;;17.30;49.10;;;;;;5040573;28;20486;-52
2022/08/12 05:47:22;;;;;;;8.23;2.63;;;17.40;52.90;;;;;;5047158;28;20548;-51
2022/08/12 05:49:49;;;;;;;7.00;3.33;;;17.50;62.00;;;;;;5048688;28;20516;-52
2022/08/12 05:52:16;;;;;;;16.13;3.23;;;17.70;70.10;;;;;;5046071;28;20513;-51
2022/08/12 05:54:43;;;;;;;5.30;2.83;;;17.90;73.20;;;;;;5045109;28;20511;-51
2022/08/12 05:57:11;;;;;;;7.47;2.83;;;18.00;77.90;;;;;;5045202;28;20548;-52
2022/08/12 05:59:38;;;;;;;4.33;3.33;;;18.20;82.00;;;;;;5045452;28;20545;-51
2022/08/12 06:02:10;;;;;;;7.27;3.43;;;18.30;85.80;;;;;;5059815;28;20969;-52
2022/08/12 06:04:39;;;;;;;11.70;3.63;;;18.40;92.60;;;;;;5051313;28;20580;-52
2022/08/12 06:07:07;;;;;;;4.73;2.90;;;18.50;94.70;;;;;;5050450;28;20479;-52
2022/08/12 06:09:34;;;;;;;10.07;2.70;;;18.60;98.70;;;;;;5049528;28;20999;-51
2022/08/12 06:12:01;;;;;;;5.03;2.83;;;18.70;99.90;;;;;;5061554;28;20442;-52
2022/08/12 06:14:28;;;;;;;8.20;2.60;;;18.80;99.90;;;;;;5050460;28;20919;-51
2022/08/12 06:16:55;;;;;;;10.63;2.53;;;19.00;99.90;;;;;;5049324;28;20486;-52
2022/08/12 06:19:22;;;;;;;3.47;2.93;;;19.10;99.90;;;;;;5046543;28;20516;-52
2022/08/12 06:21:50;;;;;;;2.90;2.70;;;19.30;99.90;;;;;;5046804;28;22674;-53
2022/08/12 06:24:23;;;;;;;6.70;2.20;;;19.40;99.90;;;;;;5048666;28;20482;-51
2022/08/12 06:26:49;;;;;;;6.13;2.67;;;19.50;99.90;;;;;;5046799;28;20582;-52
2022/08/12 06:29:18;;;;;;;4.07;2.30;;;19.70;99.90;;;;;;5045574;28;20453;-51
2022/08/12 06:31:49;;;;;;;7.90;2.93;;;19.80;99.90;;;;;;5051544;28;21005;-54
2022/08/12 06:34:16;;;;;;;8.70;3.00;;;19.90;99.90;;;;;;5051940;28;20882;-51
2022/08/12 06:36:43;;;;;;;5.73;2.67;;;20.10;99.90;;;;;;5053442;28;20485;-52
2022/08/12 06:39:11;;;;;;;9.43;2.50;;;20.20;99.90;;;;;;5049392;28;20994;-52
2022/08/12 06:44:22;;;;;;;6.33;1.97;;;20.60;99.90;;;;;;5044971;28;20480;-51
2022/08/12 06:46:48;;;;;;;4.37;2.27;;;20.80;99.90;;;;;;5047631;28;20489;-52
2022/08/12 06:49:15;;;;;;;11.00;2.10;;;20.90;99.90;;;;;;5047322;28;20462;-52
2022/08/12 06:51:42;;;;;;;4.53;2.57;;;21.00;99.90;;;;;;5046965;28;20465;-52
2022/08/12 06:54:11;;;;;;;3.77;2.43;;;21.30;99.90;;;;;;5048265;28;20936;-52
2022/08/12 06:56:37;;;;;;;3.40;2.40;;;21.40;99.90;;;;;;5045957;28;20503;-52
2022/08/12 06:59:04;;;;;;;4.63;1.93;;;21.50;99.90;;;;;;5039123;28;20520;-52
2022/08/12 07:01:31;;;;;;;3.70;2.00;;;21.70;99.90;;;;;;5046206;28;20463;-52
2022/08/12 07:03:58;;;;;;;7.93;1.80;;;21.80;99.90;;;;;;5050585;28;20550;-52
2022/08/12 07:06:25;;;;;;;6.00;1.80;;;22.00;99.90;;;;;;5040550;28;20516;-51
2022/08/12 07:08:52;;;;;;;7.03;1.90;;;22.30;99.90;;;;;;5052238;28;20495;-52
2022/08/12 07:11:20;;;;;;;12.90;2.30;;;22.50;99.90;;;;;;5044749;28;20486;-52
2022/08/12 07:13:51;;;;;;;4.70;1.90;;;22.60;99.90;;;;;;5050572;28;20551;-52
2022/08/12 07:16:20;;;;;;;5.73;2.10;;;22.80;99.90;;;;;;5051049;28;20490;-52
2022/08/12 07:18:50;;;;;;;3.50;2.50;;;23.00;99.90;;;;;;5049072;28;20465;-52
2022/08/12 07:21:18;;;;;;;2.83;1.70;;;23.20;99.90;;;;;;5046895;28;20462;-52
2022/08/12 07:23:44;;;;;;;2.63;1.80;;;23.40;99.90;;;;;;5051750;28;20493;-52
2022/08/12 07:26:15;;;;;;;5.40;1.80;;;23.60;99.90;;;;;;5050474;28;20814;-53
2022/08/12 07:28:46;;;;;;;6.53;2.00;;;23.80;99.90;;;;;;5048679;28;20466;-52
2022/08/12 07:31:13;;;;;;;3.63;1.60;;;23.80;99.90;;;;;;5048084;28;20456;-53
2022/08/12 07:33:41;;;;;;;4.90;1.90;;;23.80;99.90;;;;;;5049629;28;20463;-52
2022/08/12 07:36:12;;;;;;;7.63;1.53;;;23.70;99.90;;;;;;5048874;28;20504;-53
2022/08/12 07:38:42;;;;;;;2.10;1.37;;;23.80;99.90;;;;;;5049389;28;20545;-53
2022/08/12 07:41:12;;;;;;;4.87;2.20;;;23.90;99.90;;;;;;5060124;28;20556;-53
2022/08/12 07:43:40;;;;;;;3.17;1.50;;;24.00;99.90;;;;;;5044546;28;20454;-52
2022/08/12 07:46:10;;;;;;;1.90;1.40;;;24.00;99.90;;;;;;5048176;28;20504;-52
2022/08/12 07:48:40;;;;;;;3.00;2.00;;;24.20;99.90;;;;;;5049490;28;20458;-52
2022/08/12 07:51:07;;;;;;;5.53;2.10;;;24.20;99.90;;;;;;5053501;28;20870;-52
2022/08/12 07:53:35;;;;;;;2.53;1.67;;;24.30;99.90;;;;;;5052096;28;20492;-53
2022/08/12 07:56:03;;;;;;;3.07;1.83;;;24.40;99.90;;;;;;5042115;28;20540;-52
2022/08/12 07:58:30;;;;;;;11.47;1.90;;;24.40;99.90;;;;;;5049082;28;20457;-53
2022/08/12 08:00:58;;;;;;;3.90;1.80;;;24.60;99.90;;;;;;5040645;28;20547;-52
2022/08/12 08:03:28;;;;;;;10.57;1.67;;;24.70;99.90;;;;;;5048188;28;20465;-52
2022/08/12 08:05:55;;;;;;;12.03;2.00;;;24.80;99.90;;;;;;5051111;28;20517;-52
2022/08/12 08:08:23;;;;;;;13.07;2.10;;;24.90;99.90;;;;;;5045556;28;20958;-52
2022/08/12 08:10:51;;;;;;;6.40;1.63;;;25.00;99.90;;;;;;5041797;28;20485;-53
2022/08/12 08:13:17;;;;;;;2.07;1.30;;;25.10;99.90;;;;;;5049023;28;20462;-52
2022/08/12 08:15:45;;;;;;;4.07;1.07;;;25.20;99.90;;;;;;5056991;28;21371;-52
2022/08/12 08:18:14;;;;;;;3.50;1.63;;;25.30;99.90;;;;;;5045110;28;20480;-52
2022/08/12 08:20:45;;;;;;;8.73;1.60;;;25.40;99.90;;;;;;5043697;28;21410;-52
2022/08/12 08:23:18;;;;;;;11.20;1.50;;;25.40;99.90;;;;;;5045225;28;20519;-51
2022/08/12 08:25:45;;;;;;;3.50;1.20;;;25.50;99.90;;;;;;5048764;28;20508;-52
2022/08/12 08:28:13;;;;;;;2.57;1.33;;;25.50;99.90;;;;;;5046382;28;20469;-51
2022/08/12 08:30:42;;;;;;;3.10;1.70;;;25.60;99.90;;;;;;5045295;28;20508;-51
2022/08/12 08:33:10;;;;;;;1.70;1.30;;;25.60;99.90;;;;;;5050319;28;20468;-53
2022/08/12 08:35:37;;;;;;;3.60;1.90;;;25.70;99.90;;;;;;5044296;28;20478;-51
2022/08/12 08:38:10;;;;;;;2.70;1.73;;;25.70;99.90;;;;;;5055220;28;20461;-51
2022/08/12 08:43:23;;;;;;;26.70;1.50;;;26.00;99.90;;;;;;5045115;28;20583;-52
2022/08/12 08:45:49;;;;;;;3.90;1.13;;;26.00;99.90;;;;;;5056839;28;20555;-52
2022/08/12 08:48:16;;;;;;;11.60;1.23;;;26.10;99.90;;;;;;5045128;28;20470;-52
2022/08/12 08:50:43;;;;;;;2.30;1.30;;;26.10;99.90;;;;;;5048303;28;20465;-52
2022/08/12 08:53:11;;;;;;;4.63;1.10;;;26.10;99.90;;;;;;5044414;28;20462;-53
2022/08/12 08:55:39;;;;;;;3.53;1.27;;;26.30;99.90;;;;;;5048347;28;20482;-52
2022/08/12 08:58:07;;;;;;;9.60;1.40;;;26.40;99.90;;;;;;5047477;28;20581;-53
2022/08/12 09:00:37;;;;;;;2.63;1.33;;;26.50;99.90;;;;;;5044799;28;20450;-51
2022/08/12 09:03:05;;;;;;;7.27;1.30;;;26.50;99.90;;;;;;5034484;28;20818;-52
2022/08/12 09:05:32;;;;;;;12.63;1.10;;;26.90;99.90;;;;;;5044137;28;20881;-52
2022/08/12 09:08:00;;;;;;;2.83;1.50;;;27.30;99.90;;;;;;5036389;28;20458;-52
2022/08/12 09:10:29;;;;;;;4.67;1.50;;;27.40;99.90;;;;;;5038668;28;20991;-52
2022/08/12 09:15:41;;;;;;;1.20;1.17;;;27.70;99.90;;;;;;5039422;28;20472;-53
2022/08/12 09:18:10;;;;;;;2.40;1.23;;;27.40;99.90;;;;;;5040923;28;20548;-53
2022/08/12 09:20:38;;;;;;;3.53;1.33;;;27.50;99.90;;;;;;5045774;28;20477;-51
2022/08/12 09:23:09;;;;;;;4.40;1.10;;;27.50;99.90;;;;;;5039531;28;21079;-51
2022/08/12 09:25:38;;;;;;;3.23;1.17;;;27.70;99.90;;;;;;5047062;28;20485;-52
2022/08/12 09:28:06;;;;;;;5.20;1.13;;;27.60;99.90;;;;;;5041992;28;20514;-52
2022/08/12 09:30:34;;;;;;;7.03;1.67;;;27.70;99.90;;;;;;5048589;28;20516;-53
2022/08/12 09:33:00;;;;;;;3.47;1.30;;;27.80;99.90;;;;;;5052317;28;20507;-53
2022/08/12 09:35:32;;;;;;;1.30;1.17;;;27.80;99.90;;;;;;5051796;28;20474;-52
2022/08/12 09:38:00;;;;;;;2.53;1.10;;;27.70;99.90;;;;;;5061351;28;20453;-51
2022/08/12 09:40:28;;;;;;;1.77;1.27;;;27.90;99.90;;;;;;5053549;28;20475;-52
2022/08/12 09:45:47;;;;;;;2.07;1.50;;;27.80;99.90;;;;;;5059900;28;20900;-51
2022/08/12 09:48:16;;;;;;;4.77;1.13;;;27.90;99.90;;;;;;5048336;28;20448;-53
2022/08/12 09:50:43;;;;;;;6.13;1.27;;;27.90;99.90;;;;;;5068221;28;20947;-53
2022/08/12 09:53:12;;;;;;;1.13;1.03;;;28.00;99.90;;;;;;5053592;28;20456;-52
2022/08/12 09:55:42;;;;;;;1.67;1.00;;;28.00;99.90;;;;;;5040943;28;20482;-52
2022/08/12 09:58:10;;;;;;;1.80;1.43;;;28.00;99.90;;;;;;5052850;28;20519;-50
2022/08/12 10:00:37;;;;;;;1.20;1.00;;;27.80;99.90;;;;;;5054133;28;20503;-51
2022/08/12 10:03:05;;;;;;;9.03;1.20;;;28.00;99.90;;;;;;5057848;28;20846;-53
2022/08/12 10:05:35;;;;;;;8.03;1.10;;;28.10;99.90;;;;;;5050787;28;20543;-52
2022/08/12 10:08:03;;;;;;;1.27;1.03;;;28.20;99.90;;;;;;5047248;28;20462;-53
2022/08/12 10:10:30;;;;;;;0.93;0.93;;;28.10;99.90;;;;;;5044282;28;20454;-53
2022/08/12 10:15:46;;;;;;;1.27;1.17;;;28.30;99.90;;;;;;5056699;28;20543;-52
2022/08/12 10:18:13;;;;;;;3.53;1.20;;;28.40;99.90;;;;;;5048239;28;20485;-51
2022/08/12 10:20:40;;;;;;;3.17;1.17;;;28.40;99.90;;;;;;5050969;28;20439;-53
2022/08/12 10:23:07;;;;;;;6.00;0.97;;;28.50;99.90;;;;;;5057026;28;20506;-52
2022/08/12 10:31:05;;;;;;;6.83;1.50;;;28.40;99.90;;;;;;5051328;28;20445;-52
2022/08/12 10:33:32;;;;;;;6.37;1.43;;;28.60;99.90;;;;;;5049787;28;20465;-51
2022/08/12 10:36:00;;;;;;;3.70;0.90;;;28.60;99.90;;;;;;5043909;28;20543;-52
2022/08/12 10:38:27;;;;;;;2.07;0.93;;;28.80;99.90;;;;;;5047005;28;20944;-52
2022/08/12 10:43:47;;;;;;;2.40;1.10;;;28.70;99.90;;;;;;5050826;28;20450;-53
2022/08/12 10:46:16;;;;;;;4.47;1.03;;;28.80;99.90;;;;;;5048216;28;20918;-51
2022/08/12 10:48:46;;;;;;;11.00;1.40;;;28.90;99.90;;;;;;5047084;28;20475;-52
2022/08/12 10:51:13;;;;;;;1.27;1.17;;;29.00;99.90;;;;;;5050967;28;20548;-52
2022/08/12 10:53:40;;;;;;;10.10;1.20;;;29.00;99.90;;;;;;5050985;28;20837;-52
2022/08/12 10:56:08;;;;;;;2.10;1.00;;;28.90;99.90;;;;;;5050563;28;20481;-52
2022/08/12 10:58:35;;;;;;;3.60;0.97;;;28.90;99.90;;;;;;5050118;28;20461;-52
2022/08/12 11:01:04;;;;;;;3.50;1.37;;;28.90;99.90;;;;;;5060284;28;20960;-52
2022/08/12 11:03:35;;;;;;;1.03;0.93;;;28.90;99.90;;;;;;5059012;28;20470;-52
2022/08/12 11:06:03;;;;;;;4.17;1.10;;;28.90;99.90;;;;;;5057021;28;20489;-53
2022/08/12 11:08:29;;;;;;;2.90;1.00;;;28.70;99.90;;;;;;5060963;28;20461;-52
2022/08/12 11:10:56;;;;;;;3.10;1.40;;;28.70;99.90;;;;;;5061899;28;20955;-53
2022/08/12 11:13:23;;;;;;;0.90;0.90;;;28.80;99.90;;;;;;5051355;28;20462;-52
2022/08/12 11:15:51;;;;;;;1.97;0.80;;;28.90;99.90;;;;;;5053874;28;20477;-53
2022/08/12 11:18:18;;;;;;;1.20;1.10;;;29.20;99.90;;;;;;5043964;28;20536;-52
2022/08/12 11:20:47;;;;;;;2.43;0.90;;;29.20;99.90;;;;;;5061237;28;20457;-53
2022/08/12 11:23:14;;;;;;;1.17;1.17;;;29.60;99.90;;;;;;5048691;28;20458;-53
2022/08/12 11:25:43;;;;;;;1.93;1.70;;;29.70;99.90;;;;;;5044063;28;20509;-53
2022/08/12 11:28:09;;;;;;;5.53;1.30;;;29.20;99.90;;;;;;5052218;28;20453;-52
2022/08/12 11:30:36;;;;;;;2.20;1.40;;;29.00;99.90;;;;;;5049623;28;20458;-52
2022/08/12 11:33:03;;;;;;;1.10;0.80;;;28.90;99.90;;;;;;5055524;28;20541;-52
2022/08/12 11:35:29;;;;;;;1.93;1.10;;;28.80;99.90;;;;;;5054269;28;20882;-51
2022/08/12 11:38:00;;;;;;;5.00;1.00;;;29.00;99.90;;;;;;5048744;28;20519;-53
2022/08/12 11:40:27;;;;;;;2.20;1.13;;;29.20;99.90;;;;;;5049574;28;20461;-53
2022/08/12 11:42:53;;;;;;;1.70;1.27;;;29.30;99.90;;;;;;5057488;28;20500;-53
2022/08/12 11:45:20;;;;;;;4.00;1.30;;;29.40;99.90;;;;;;5050961;28;20531;-51
2022/08/12 11:47:47;;;;;;;0.83;0.83;;;29.40;99.90;;;;;;5045220;28;20539;-53
2022/08/12 11:50:13;;;;;;;2.80;1.10;;;29.40;99.90;;;;;;5043452;28;21035;-54
2022/08/12 11:52:40;;;;;;;0.93;0.77;;;29.60;99.90;;;;;;5044861;28;21014;-53
2022/08/12 11:55:09;;;;;;;1.33;1.00;;;29.70;99.90;;;;;;5058448;28;20453;-53
2022/08/12 11:57:48;;;;;;;5.60;1.13;;;29.50;99.90;;;;;;5035712;28;20462;-53
2022/08/12 12:00:15;;;;;;;1.93;1.27;;;29.40;99.90;;;;;;5050956;28;20457;-52
2022/08/12 12:02:42;;;;;;;1.53;0.90;;;29.00;99.90;;;;;;5044887;28;20457;-53
2022/08/12 12:05:08;;;;;;;6.50;1.17;;;29.10;99.90;;;;;;5043972;28;20575;-52
2022/08/12 12:07:38;;;;;;;6.90;1.70;;;29.20;99.90;;;;;;5046194;28;21144;-53
2022/08/12 12:10:05;;;;;;;5.70;1.90;;;29.30;99.90;;;;;;5057349;28;20461;-54
2022/08/12 12:12:33;;;;;;;3.20;1.20;;;29.50;99.90;;;;;;5049764;28;20462;-52
2022/08/12 12:15:01;;;;;;;2.70;1.27;;;29.70;99.90;;;;;;5049054;28;20515;-52
2022/08/12 12:17:27;;;;;;;1.20;1.20;;;29.80;99.90;;;;;;5045720;28;20455;-52
2022/08/12 12:19:54;;;;;;;1.47;1.10;;;30.00;99.90;;;;;;5050817;28;20462;-51
2022/08/12 12:22:21;;;;;;;1.87;1.10;;;30.20;99.90;;;;;;5049800;28;20461;-51
2022/08/12 12:24:50;;;;;;;2.47;1.03;;;30.30;99.90;;;;;;5053816;28;20474;-52
2022/08/12 12:27:19;;;;;;;6.63;1.57;;;30.40;99.90;;;;;;5048028;28;20462;-51
2022/08/12 12:29:47;;;;;;;3.50;1.60;;;30.40;99.90;;;;;;5061350;28;20630;-52
2022/08/12 12:32:14;;;;;;;1.13;1.03;;;30.20;99.90;;;;;;5063162;28;20461;-51
2022/08/12 12:34:40;;;;;;;3.30;1.10;;;30.10;99.90;;;;;;5047562;28;20542;-52
2022/08/12 12:37:11;;;;;;;0.90;0.90;;;30.10;99.90;;;;;;5059527;28;20477;-53
2022/08/12 12:39:38;;;;;;;3.07;1.23;;;30.10;99.90;;;;;;5047948;28;20458;-52
2022/08/12 12:42:05;;;;;;;3.20;2.20;;;30.10;99.90;;;;;;5044592;28;20462;-52
2022/08/12 12:44:31;;;;;;;3.07;1.30;;;29.50;99.90;;;;;;5056173;28;20515;-53
2022/08/12 12:46:59;;;;;;;2.30;1.37;;;29.40;99.90;;;;;;5052152;28;20486;-54
2022/08/12 12:49:26;;;;;;;1.10;1.10;;;29.50;99.90;;;;;;5053384;28;20449;-52
2022/08/12 12:51:53;;;;;;;1.80;1.70;;;29.70;99.90;;;;;;5057250;28;20462;-51
2022/08/12 12:54:19;;;;;;;2.37;1.73;;;29.70;99.90;;;;;;5054296;28;20457;-52
2022/08/12 12:56:48;;;;;;;2.03;1.50;;;29.70;99.90;;;;;;5057515;28;20883;-52
2022/08/12 12:59:17;;;;;;;2.50;1.73;;;29.90;99.90;;;;;;5059656;28;21018;-51
2022/08/12 13:01:44;;;;;;;2.57;1.30;;;29.80;99.90;;;;;;5062655;28;20540;-52
2022/08/12 13:04:12;;;;;;;9.33;1.40;;;30.00;99.90;;;;;;5061744;28;20851;-53
2022/08/12 13:06:40;;;;;;;1.20;1.20;;;29.90;99.90;;;;;;5050553;28;20547;-53
2022/08/12 13:09:06;;;;;;;2.07;1.23;;;29.60;99.90;;;;;;5053569;28;20589;-53
2022/08/12 13:11:33;;;;;;;1.43;1.33;;;29.50;99.90;;;;;;5065736;28;20464;-52
2022/08/12 13:14:00;;;;;;;17.77;1.30;;;29.20;99.90;;;;;;5060112;28;20514;-53
2022/08/12 13:16:28;;;;;;;1.97;1.10;;;29.10;99.90;;;;;;5066067;28;20469;-53
2022/08/12 13:18:55;;;;;;;3.70;1.43;;;28.80;99.90;;;;;;5051675;28;20485;-53
2022/08/12 13:21:26;;;;;;;3.13;1.20;;;28.50;99.90;;;;;;5047142;28;20458;-51
2022/08/12 13:23:54;;;;;;;2.97;1.37;;;28.50;99.90;;;;;;5055171;28;20470;-52
2022/08/12 13:26:21;;;;;;;1.47;1.40;;;28.50;99.90;;;;;;5064963;28;20476;-52
2022/08/12 13:28:52;;;;;;;1.80;1.70;;;28.40;99.90;;;;;;5057644;28;20544;-52
2022/08/12 13:31:20;;;;;;;2.50;1.13;;;28.50;99.90;;;;;;5048747;28;20468;-51
2022/08/12 13:33:50;;;;;;;1.57;1.20;;;28.50;99.90;;;;;;5048213;28;20486;-52
2022/08/12 13:36:19;;;;;;;1.17;1.00;;;28.40;99.90;;;;;;5066756;28;20461;-52
2022/08/12 13:38:50;;;;;;;4.00;1.30;;;28.30;99.90;;;;;;5051113;28;20513;-52
2022/08/12 13:41:31;;;;;;;1.10;1.00;;;28.20;99.90;;;;;;5044283;28;20458;-52
2022/08/12 13:43:58;;;;;;;6.83;1.23;;;28.10;99.90;;;;;;5044712;28;20824;-53
2022/08/12 13:46:25;;;;;;;6.10;1.47;;;28.00;99.90;;;;;;5045597;28;20991;-51
2022/08/12 13:48:53;;;;;;;3.73;1.43;;;28.30;99.90;;;;;;5045730;28;20564;-52
2022/08/12 13:51:19;;;;;;;1.50;1.40;;;28.40;99.90;;;;;;5054523;28;20516;-52
2022/08/12 13:53:47;;;;;;;3.00;1.20;;;28.40;99.90;;;;;;5050480;28;20450;-52
2022/08/12 13:56:14;;;;;;;1.53;1.17;;;28.30;99.90;;;;;;5048517;28;20884;-52
2022/08/12 13:58:47;;;;;;;9.03;1.37;;;28.20;99.90;;;;;;5045828;28;20445;-52
2022/08/12 14:01:14;;;;;;;2.60;1.40;;;28.20;99.90;;;;;;5053640;28;20448;-52
2022/08/12 14:03:41;;;;;;;8.33;1.53;;;28.30;99.90;;;;;;5053971;28;20507;-52
2022/08/12 14:06:11;;;;;;;1.27;1.17;;;28.40;99.90;;;;;;5062773;28;20480;-52
2022/08/12 14:08:37;;;;;;;5.33;1.40;;;28.30;99.90;;;;;;5059427;28;21127;-51
2022/08/12 14:11:05;;;;;;;2.23;1.83;;;28.30;99.90;;;;;;5049742;28;20524;-52
2022/08/12 14:13:34;;;;;;;3.63;1.23;;;28.30;99.90;;;;;;5053934;28;20457;-52
2022/08/12 14:16:03;;;;;;;4.47;1.30;;;28.30;99.90;;;;;;5056520;28;21081;-52
2022/08/12 14:18:31;;;;;;;2.30;1.70;;;28.20;99.90;;;;;;5044948;28;20485;-52
2022/08/12 14:21:00;;;;;;;9.53;1.10;;;28.10;99.90;;;;;;5060610;28;20511;-52
2022/08/12 14:23:28;;;;;;;1.27;1.20;;;28.00;99.90;;;;;;5050532;28;20520;-52
2022/08/12 14:25:59;;;;;;;1.33;1.17;;;28.10;99.90;;;;;;5058756;28;20982;-52
2022/08/12 14:28:29;;;;;;;1.13;1.10;;;28.40;99.90;;;;;;5044907;28;20461;-52
2022/08/12 14:30:59;;;;;;;1.03;1.03;;;28.60;99.90;;;;;;5050198;28;20499;-51
2022/08/12 14:33:28;;;;;;;8.50;1.40;;;28.60;99.90;;;;;;5055003;28;20441;-52
2022/08/12 14:35:55;;;;;;;6.67;1.70;;;28.60;99.90;;;;;;5049558;28;21026;-51
2022/08/12 14:38:24;;;;;;;1.57;1.47;;;28.30;99.90;;;;;;5049312;28;20573;-52
2022/08/12 14:40:55;;;;;;;2.83;1.23;;;28.30;99.90;;;;;;5046809;28;20462;-52